createdAt,value
2022-08-30T00:01:01.415Z,43.49
2022-08-30T00:03:28.129Z,43.52
2022-08-30T00:05:56.253Z,43.11
2022-08-30T00:08:23.204Z,43.67
2022-08-30T00:10:51.223Z,43.22
2022-08-30T00:13:19.529Z,43.41
2022-08-30T00:15:46.734Z,43.27
2022-08-30T00:18:13.439Z,43.34
2022-08-30T00:20:40.438Z,43.77
2022-08-30T00:23:07.267Z,43.76
2022-08-30T00:25:34.057Z,43.51
2022-08-30T00:28:00.642Z,43.75
2022-08-30T00:30:27.215Z,43.56
2022-08-30T00:32:54.194Z,43.83
2022-08-30T00:35:21.640Z,43.50
2022-08-30T00:37:48.420Z,43.32
2022-08-30T00:40:15.996Z,43.82
2022-08-30T00:42:44.099Z,43.48
2022-08-30T00:45:19.104Z,43.79
2022-08-30T00:47:46.181Z,43.96
2022-08-30T00:50:14.564Z,43.95
2022-08-30T00:52:45.153Z,43.84
2022-08-30T00:55:14.170Z,43.98
2022-08-30T00:57:43.295Z,43.92
2022-08-30T01:00:11.195Z,43.67
2022-08-30T01:02:37.993Z,43.79
2022-08-30T01:05:06.817Z,43.68
2022-08-30T01:07:35.125Z,43.60
2022-08-30T01:10:02.446Z,43.69
2022-08-30T01:12:30.061Z,43.72
2022-08-30T01:14:57.907Z,43.65
2022-08-30T01:17:25.592Z,43.75
2022-08-30T01:20:13.275Z,43.65
2022-08-30T01:22:49.506Z,43.96
2022-08-30T01:25:25.946Z,43.65
2022-08-30T01:27:57.137Z,43.80
2022-08-30T01:30:24.082Z,43.90
2022-08-30T01:32:54.244Z,44.25
2022-08-30T01:35:20.848Z,43.47
2022-08-30T01:37:47.537Z,44.04
2022-08-30T01:40:15.613Z,43.99
2022-08-30T01:42:42.228Z,43.86
2022-08-30T01:45:09.890Z,44.15
2022-08-30T01:47:36.541Z,43.73
2022-08-30T01:50:04.936Z,43.93
2022-08-30T01:52:31.492Z,44.15
2022-08-30T01:54:58.056Z,43.76
2022-08-30T01:57:26.900Z,43.84
2022-08-30T01:59:53.873Z,44.13
2022-08-30T02:02:24.294Z,43.95
2022-08-30T02:04:51.824Z,43.92
2022-08-30T02:07:18.375Z,44.21
2022-08-30T02:09:46.174Z,44.09
2022-08-30T02:12:13.203Z,43.87
2022-08-30T02:14:40.168Z,43.61
2022-08-30T02:17:08.585Z,43.99
2022-08-30T02:19:35.638Z,43.93
2022-08-30T02:22:02.551Z,44.01
2022-08-30T02:24:29.120Z,43.89
2022-08-30T02:26:55.724Z,43.95
2022-08-30T02:29:23.496Z,43.61
2022-08-30T02:31:50.058Z,43.79
2022-08-30T02:34:17.546Z,44.17
2022-08-30T02:36:44.835Z,43.80
2022-08-30T02:39:12.674Z,43.92
2022-08-30T02:41:39.808Z,44.11
2022-08-30T02:44:07.414Z,44.22
2022-08-30T02:46:34.745Z,44.05
2022-08-30T02:49:13.186Z,44.45
2022-08-30T02:51:49.056Z,43.99
2022-08-30T02:54:19.867Z,43.80
2022-08-30T02:56:47.882Z,44.08
2022-08-30T02:59:15.785Z,43.92
2022-08-30T03:01:42.560Z,44.23
2022-08-30T03:04:09.840Z,44.06
2022-08-30T03:06:36.629Z,44.36
2022-08-30T03:09:03.905Z,44.07
2022-08-30T03:11:30.606Z,44.05
2022-08-30T03:13:57.167Z,44.12
2022-08-30T03:16:23.793Z,44.51
2022-08-30T03:18:50.502Z,44.34
2022-08-30T03:21:17.573Z,44.39
2022-08-30T03:23:44.553Z,44.48
2022-08-30T03:26:14.678Z,44.50
2022-08-30T03:28:44.060Z,44.67
2022-08-30T03:31:10.922Z,44.56
2022-08-30T03:33:40.361Z,44.73
2022-08-30T03:36:08.689Z,44.77
2022-08-30T03:38:35.422Z,44.64
2022-08-30T03:41:02.060Z,44.42
2022-08-30T03:43:28.648Z,44.68
2022-08-30T03:45:56.421Z,44.50
2022-08-30T03:48:23.035Z,44.48
2022-08-30T03:50:49.620Z,44.59
2022-08-30T03:53:16.344Z,44.60
2022-08-30T03:55:43.020Z,44.45
2022-08-30T03:58:09.638Z,44.40
2022-08-30T04:00:36.346Z,44.20
2022-08-30T04:03:03.181Z,44.19
2022-08-30T04:05:30.707Z,44.41
2022-08-30T04:07:57.350Z,44.40
2022-08-30T04:10:23.931Z,44.54
2022-08-30T04:12:50.647Z,44.33
2022-08-30T04:15:19.040Z,44.44
2022-08-30T04:17:46.055Z,44.88
2022-08-30T04:20:12.788Z,44.51
2022-08-30T04:22:39.352Z,44.97
2022-08-30T04:25:06.745Z,44.70
2022-08-30T04:27:33.369Z,45.11
2022-08-30T04:30:01.203Z,45.12
2022-08-30T04:32:27.800Z,45.06
2022-08-30T04:34:59.640Z,44.82
2022-08-30T04:37:27.420Z,45.07
2022-08-30T04:40:00.600Z,44.72
2022-08-30T04:42:30.053Z,45.10
2022-08-30T04:44:57.159Z,45.29
2022-08-30T04:47:23.903Z,44.95
2022-08-30T04:49:50.469Z,45.49
2022-08-30T04:52:17.047Z,44.92
2022-08-30T04:54:43.601Z,45.53
2022-08-30T04:57:10.203Z,45.20
2022-08-30T04:59:38.677Z,44.91
2022-08-30T05:02:05.536Z,45.25
2022-08-30T05:04:32.086Z,45.30
2022-08-30T05:06:58.675Z,45.28
2022-08-30T05:09:25.258Z,45.29
2022-08-30T05:11:51.836Z,45.52
2022-08-30T05:14:18.420Z,45.25
2022-08-30T05:16:46.334Z,45.60
2022-08-30T05:19:13.014Z,45.37
2022-08-30T05:21:40.737Z,45.12
2022-08-30T05:24:08.129Z,45.17
2022-08-30T05:26:38.474Z,45.49
2022-08-30T05:29:05.103Z,45.35
2022-08-30T05:31:34.552Z,45.19
2022-08-30T05:34:01.759Z,45.52
2022-08-30T05:36:29.944Z,44.85
2022-08-30T05:38:56.841Z,45.06
2022-08-30T05:41:26.498Z,45.02
2022-08-30T05:43:55.022Z,45.41
2022-08-30T05:46:22.142Z,45.27
2022-08-30T05:48:49.968Z,45.60
2022-08-30T05:51:18.237Z,45.38
2022-08-30T05:53:45.739Z,45.57
2022-08-30T05:56:13.973Z,45.13
2022-08-30T05:58:40.676Z,45.50
2022-08-30T06:01:07.777Z,45.65
2022-08-30T06:03:34.363Z,45.65
2022-08-30T06:06:01.379Z,45.46
2022-08-30T06:08:28.084Z,46.14
2022-08-30T06:10:54.716Z,45.78
2022-08-30T06:13:22.326Z,46.21
2022-08-30T06:15:49.621Z,46.19
2022-08-30T06:18:16.378Z,46.19
2022-08-30T06:20:44.718Z,45.98
2022-08-30T06:23:11.296Z,46.32
2022-08-30T06:25:41.409Z,46.27
2022-08-30T06:28:09.665Z,45.97
2022-08-30T06:30:36.421Z,45.83
2022-08-30T06:33:03.119Z,45.69
2022-08-30T06:35:32.671Z,45.44
2022-08-30T06:38:02.099Z,45.97
2022-08-30T06:40:28.958Z,45.62
2022-08-30T06:42:55.697Z,46.22
2022-08-30T06:45:22.581Z,46.44
2022-08-30T06:47:49.493Z,46.59
2022-08-30T06:50:17.257Z,46.65
2022-08-30T06:52:44.865Z,46.11
2022-08-30T06:55:13.243Z,46.69
2022-08-30T06:57:39.925Z,46.76
2022-08-30T07:00:09.214Z,47.03
2022-08-30T07:02:39.231Z,46.83
2022-08-30T07:05:06.666Z,46.50
2022-08-30T07:07:33.386Z,46.13
2022-08-30T07:10:03.453Z,45.89
2022-08-30T07:12:30.568Z,45.94
2022-08-30T07:14:57.130Z,45.70
2022-08-30T07:17:41.826Z,45.42
2022-08-30T07:20:09.168Z,45.49
2022-08-30T07:22:35.963Z,45.17
2022-08-30T07:25:02.582Z,45.47
2022-08-30T07:27:29.150Z,44.56
2022-08-30T07:29:55.981Z,44.52
2022-08-30T07:32:22.591Z,44.02
2022-08-30T07:34:49.196Z,44.29
2022-08-30T07:37:18.421Z,44.29
2022-08-30T07:39:47.764Z,44.19
2022-08-30T07:42:14.758Z,44.04
2022-08-30T07:44:41.343Z,44.14
2022-08-30T07:47:08.051Z,44.42
2022-08-30T07:49:34.599Z,44.40
2022-08-30T07:52:01.182Z,43.87
2022-08-30T07:54:27.753Z,44.31
2022-08-30T07:56:55.908Z,43.58
2022-08-30T07:59:23.779Z,43.51
2022-08-30T08:01:50.406Z,43.10
2022-08-30T08:04:19.453Z,42.76
2022-08-30T08:06:46.206Z,42.75
2022-08-30T08:09:12.924Z,42.70
2022-08-30T08:11:41.368Z,42.42
2022-08-30T08:14:08.263Z,42.29
2022-08-30T08:16:36.164Z,43.09
2022-08-30T08:19:04.558Z,43.12
2022-08-30T08:21:31.151Z,42.19
2022-08-30T08:23:57.739Z,43.17
2022-08-30T08:26:24.328Z,43.19
2022-08-30T08:28:51.072Z,43.09
2022-08-30T08:31:24.007Z,42.68
2022-08-30T08:33:55.317Z,42.13
2022-08-30T08:36:22.099Z,42.02
2022-08-30T08:38:48.667Z,42.04
2022-08-30T08:41:33.947Z,41.92
2022-08-30T08:44:00.670Z,41.66
2022-08-30T08:46:37.986Z,41.29
2022-08-30T08:49:06.591Z,41.14
2022-08-30T08:51:54.631Z,41.88
2022-08-30T08:54:39.491Z,41.72
2022-08-30T08:57:06.123Z,42.31
2022-08-30T08:59:32.878Z,41.54
2022-08-30T09:02:02.990Z,41.33
2022-08-30T09:04:35.967Z,41.37
2022-08-30T09:07:05.808Z,41.69
2022-08-30T09:09:38.042Z,41.35
2022-08-30T09:12:07.244Z,41.39
2022-08-30T09:14:48.522Z,41.48
2022-08-30T09:17:16.969Z,41.23
2022-08-30T09:19:52.307Z,41.54
2022-08-30T09:22:33.695Z,41.52
2022-08-30T09:25:05.953Z,40.96
2022-08-30T09:27:34.721Z,41.06
2022-08-30T09:30:23.331Z,40.97
2022-08-30T09:32:59.718Z,40.90
2022-08-30T09:35:38.851Z,40.74
2022-08-30T09:38:10.626Z,40.81
2022-08-30T09:40:44.010Z,40.61
2022-08-30T09:43:20.852Z,40.57
2022-08-30T09:45:50.361Z,40.26
2022-08-30T09:48:44.130Z,40.11
2022-08-30T09:51:10.916Z,40.12
2022-08-30T09:54:07.219Z,39.78
2022-08-30T09:56:36.107Z,40.04
2022-08-30T09:59:40.913Z,39.54
2022-08-30T10:02:13.508Z,39.86
2022-08-30T10:04:58.591Z,39.54
2022-08-30T10:07:29.276Z,39.34
2022-08-30T10:10:19.794Z,39.57
2022-08-30T10:13:33.688Z,39.13
2022-08-30T10:16:10.571Z,38.99
2022-08-30T10:18:51.176Z,39.05
2022-08-30T10:21:25.665Z,38.60
2022-08-30T10:24:14.120Z,38.68
2022-08-30T10:26:54.691Z,38.79
2022-08-30T10:29:38.333Z,39.43
2022-08-30T10:32:20.315Z,39.48
2022-08-30T10:34:55.162Z,39.33
2022-08-30T10:37:29.060Z,39.11
2022-08-30T10:40:24.091Z,38.53
2022-08-30T10:42:53.312Z,38.62
2022-08-30T10:45:20.994Z,38.32
2022-08-30T10:47:57.759Z,37.81
2022-08-30T10:50:41.360Z,38.33
2022-08-30T10:53:19.111Z,38.22
2022-08-30T10:55:51.181Z,38.39
2022-08-30T10:58:18.506Z,38.42
2022-08-30T11:01:08.130Z,38.54
2022-08-30T11:03:57.500Z,38.93
2022-08-30T11:06:38.336Z,39.34
2022-08-30T11:09:47.366Z,38.93
2022-08-30T11:12:34.686Z,38.14
2022-08-30T11:15:13.495Z,38.48
2022-08-30T11:17:47.053Z,38.34
2022-08-30T11:20:28.343Z,39.16
2022-08-30T11:23:29.028Z,39.75
2022-08-30T11:26:07.481Z,39.01
2022-08-30T11:28:37.071Z,38.75
2022-08-30T11:31:08.886Z,38.69
2022-08-30T11:33:48.845Z,38.85
2022-08-30T11:36:37.237Z,38.05
2022-08-30T11:39:09.970Z,38.45
2022-08-30T11:44:32.894Z,37.80
2022-08-30T11:47:01.506Z,37.87
2022-08-30T11:49:39.940Z,38.14
2022-08-30T11:52:26.295Z,37.85
2022-08-30T11:55:25.723Z,37.71
2022-08-30T11:58:16.061Z,38.37
2022-08-30T12:00:51.577Z,38.07
2022-08-30T12:03:19.827Z,37.95
2022-08-30T12:05:49.568Z,37.80
2022-08-30T12:08:21.107Z,37.29
2022-08-30T12:10:59.993Z,37.46
2022-08-30T12:13:40.026Z,37.81
2022-08-30T12:16:14.826Z,38.25
2022-08-30T12:19:13.479Z,38.04
2022-08-30T12:21:45.131Z,37.30
2022-08-30T12:24:16.880Z,37.32
2022-08-30T12:26:45.297Z,37.46
2022-08-30T12:29:19.006Z,37.38
2022-08-30T12:31:47.614Z,37.62
2022-08-30T12:34:27.685Z,37.82
2022-08-30T12:36:54.192Z,38.26
2022-08-30T12:39:27.902Z,37.72
2022-08-30T12:41:55.150Z,37.56
2022-08-30T12:44:25.699Z,37.96
2022-08-30T12:46:59.725Z,37.72
2022-08-30T12:49:29.016Z,37.94
2022-08-30T12:51:56.512Z,37.39
2022-08-30T12:54:28.376Z,37.55
2022-08-30T12:59:59.629Z,37.22
2022-08-30T13:02:43.180Z,37.63
2022-08-30T13:05:32.270Z,37.56
2022-08-30T13:08:18.261Z,37.89
2022-08-30T13:11:08.430Z,37.78
2022-08-30T13:13:37.626Z,37.87
2022-08-30T13:16:26.645Z,38.05
2022-08-30T13:19:19.213Z,37.76
2022-08-30T13:21:57.249Z,37.88
2022-08-30T13:24:25.755Z,38.14
2022-08-30T13:26:53.679Z,38.49
2022-08-30T13:29:22.856Z,38.12
2022-08-30T13:31:52.670Z,37.81
2022-08-30T13:34:22.503Z,37.68
2022-08-30T13:36:55.395Z,37.57
2022-08-30T13:39:22.119Z,37.96
2022-08-30T13:41:49.560Z,37.92
2022-08-30T13:44:16.345Z,37.84
2022-08-30T13:46:52.254Z,37.93
2022-08-30T13:49:43.914Z,38.36
2022-08-30T13:52:22.347Z,38.15
2022-08-30T13:54:51.199Z,38.05
2022-08-30T14:00:11.077Z,38.09
2022-08-30T14:02:45.490Z,38.11
2022-08-30T14:05:37.675Z,38.45
2022-08-30T14:08:01.119Z,38.25
2022-08-30T14:10:31.375Z,38.16
2022-08-30T14:13:07.762Z,38.45
2022-08-30T14:15:39.236Z,38.55
2022-08-30T14:18:07.385Z,38.47
2022-08-30T14:20:38.811Z,38.49
2022-08-30T14:23:09.898Z,38.58
2022-08-30T14:25:37.025Z,38.69
2022-08-30T14:28:03.818Z,38.55
2022-08-30T14:30:30.441Z,38.82
2022-08-30T14:32:57.015Z,38.62
2022-08-30T14:35:23.612Z,38.90
2022-08-30T14:37:50.563Z,38.56
2022-08-30T14:40:18.423Z,38.87
2022-08-30T14:42:45.212Z,38.51
2022-08-30T14:45:11.961Z,38.60
2022-08-30T14:47:38.797Z,38.75
2022-08-30T14:50:06.499Z,38.72
2022-08-30T14:52:33.814Z,38.56
2022-08-30T14:55:06.197Z,38.97
2022-08-30T14:57:38.207Z,38.84
2022-08-30T15:00:07.786Z,38.76
2022-08-30T15:02:34.505Z,38.72
2022-08-30T15:05:01.737Z,38.36
2022-08-30T15:07:28.324Z,38.42
2022-08-30T15:09:54.913Z,38.89
2022-08-30T15:12:21.632Z,38.66
2022-08-30T15:14:48.611Z,38.65
2022-08-30T15:17:17.871Z,38.51
2022-08-30T15:19:44.849Z,38.32
2022-08-30T15:22:11.428Z,38.47
2022-08-30T15:24:38.000Z,38.20
2022-08-30T15:27:04.930Z,38.64
2022-08-30T15:29:32.994Z,38.54
2022-08-30T15:32:00.883Z,38.89
2022-08-30T15:34:28.543Z,38.61
2022-08-30T15:36:56.067Z,38.66
2022-08-30T15:39:22.651Z,39.04
2022-08-30T15:41:54.650Z,39.15
2022-08-30T15:44:23.829Z,39.19
2022-08-30T15:46:50.496Z,39.13
2022-08-30T15:49:20.106Z,39.07
2022-08-30T15:51:48.840Z,39.39
2022-08-30T15:54:20.439Z,39.21
2022-08-30T15:56:47.210Z,39.10
2022-08-30T15:59:15.445Z,39.14
2022-08-30T16:01:43.530Z,39.25
2022-08-30T16:04:10.763Z,39.41
2022-08-30T16:06:38.156Z,39.42
2022-08-30T16:09:06.786Z,39.26
2022-08-30T16:11:33.795Z,39.13
2022-08-30T16:14:01.611Z,39.40
2022-08-30T16:16:28.373Z,39.11
2022-08-30T16:18:55.370Z,39.28
2022-08-30T16:21:27.489Z,39.26
2022-08-30T16:23:56.485Z,39.03
2022-08-30T16:26:23.479Z,39.37
2022-08-30T16:28:50.605Z,38.95
2022-08-30T16:31:18.161Z,39.11
2022-08-30T16:33:45.335Z,39.12
2022-08-30T16:36:12.843Z,39.16
2022-08-30T16:38:40.477Z,39.36
2022-08-30T16:41:16.557Z,39.11
2022-08-30T16:43:45.700Z,38.95
2022-08-30T16:46:14.780Z,39.01
2022-08-30T16:48:42.913Z,39.13
2022-08-30T16:51:16.347Z,39.20
2022-08-30T16:53:43.369Z,38.81
2022-08-30T16:56:19.499Z,38.82
2022-08-30T16:58:47.798Z,38.97
2022-08-30T17:01:15.613Z,38.77
2022-08-30T17:03:43.935Z,39.20
2022-08-30T17:06:10.659Z,39.30
2022-08-30T17:08:37.477Z,39.90
2022-08-30T17:11:06.784Z,39.55
2022-08-30T17:13:35.759Z,39.89
2022-08-30T17:16:04.187Z,39.77
2022-08-30T17:18:31.074Z,40.00
2022-08-30T17:20:58.412Z,39.91
2022-08-30T17:23:25.164Z,39.99
2022-08-30T17:25:51.798Z,40.15
2022-08-30T17:28:19.436Z,40.02
2022-08-30T17:30:48.466Z,39.97
2022-08-30T17:33:17.825Z,40.06
2022-08-30T17:35:44.477Z,39.75
2022-08-30T17:38:11.144Z,39.74
2022-08-30T17:40:37.755Z,39.74
2022-08-30T17:43:07.958Z,40.00
2022-08-30T17:45:34.559Z,40.14
2022-08-30T17:48:02.150Z,39.85
2022-08-30T17:50:28.730Z,39.92
2022-08-30T17:52:59.931Z,40.10
2022-08-30T17:55:26.519Z,39.89
2022-08-30T17:57:57.303Z,40.01
2022-08-30T18:00:30.244Z,40.11
2022-08-30T18:02:57.804Z,39.80
2022-08-30T18:05:25.397Z,39.70
2022-08-30T18:07:52.259Z,40.03
2022-08-30T18:10:18.938Z,39.77
2022-08-30T18:12:46.089Z,40.02
2022-08-30T18:15:14.786Z,39.74
2022-08-30T18:17:43.113Z,39.88
2022-08-30T18:20:10.091Z,39.82
2022-08-30T18:22:37.891Z,40.10
2022-08-30T18:25:05.252Z,40.00
2022-08-30T18:27:31.814Z,39.88
2022-08-30T18:29:58.731Z,40.02
2022-08-30T18:32:38.025Z,40.17
2022-08-30T18:35:05.204Z,40.12
2022-08-30T18:37:32.379Z,40.17
2022-08-30T18:39:59.362Z,39.87
2022-08-30T18:42:27.667Z,40.13
2022-08-30T18:44:54.253Z,40.05
2022-08-30T18:47:23.011Z,40.29
2022-08-30T18:49:50.376Z,40.08
2022-08-30T18:52:17.124Z,39.90
2022-08-30T18:54:52.332Z,39.98
2022-08-30T18:57:20.727Z,40.12
2022-08-30T18:59:48.534Z,39.87
2022-08-30T19:02:16.437Z,40.34
2022-08-30T19:04:45.383Z,40.35
2022-08-30T19:07:14.774Z,40.41
2022-08-30T19:09:41.923Z,40.48
2022-08-30T19:12:11.464Z,40.25
2022-08-30T19:14:38.639Z,40.25
2022-08-30T19:17:07.046Z,40.16
2022-08-30T19:19:37.303Z,39.95
2022-08-30T19:22:15.562Z,40.15
2022-08-30T19:24:42.252Z,39.95
2022-08-30T19:27:10.217Z,39.98
2022-08-30T19:29:36.954Z,40.11
2022-08-30T19:32:04.196Z,40.05
2022-08-30T19:34:30.755Z,39.92
2022-08-30T19:36:57.395Z,40.13
2022-08-30T19:39:23.984Z,40.11
2022-08-30T19:41:50.776Z,39.91
2022-08-30T19:44:17.382Z,39.97
2022-08-30T19:46:44.514Z,39.68
2022-08-30T19:49:11.348Z,39.59
2022-08-30T19:51:38.837Z,39.67
2022-08-30T19:54:13.606Z,39.52
2022-08-30T19:56:40.331Z,39.84
2022-08-30T19:59:06.925Z,39.90
2022-08-30T20:01:34.123Z,39.68
2022-08-30T20:04:02.150Z,39.66
2022-08-30T20:06:29.612Z,39.68
2022-08-30T20:08:56.537Z,39.81
2022-08-30T20:11:24.486Z,39.57
2022-08-30T20:13:51.097Z,39.78
2022-08-30T20:16:17.991Z,39.48
2022-08-30T20:18:44.736Z,39.79
2022-08-30T20:21:14.425Z,39.81
2022-08-30T20:23:42.045Z,39.95
2022-08-30T20:26:12.240Z,40.13
2022-08-30T20:28:39.816Z,40.04
2022-08-30T20:31:07.430Z,40.25
2022-08-30T20:33:37.502Z,40.21
2022-08-30T20:36:05.947Z,40.39
2022-08-30T20:38:32.953Z,40.48
2022-08-30T20:41:01.137Z,40.33
2022-08-30T20:43:29.325Z,40.43
2022-08-30T20:45:56.340Z,40.57
2022-08-30T20:48:23.836Z,40.87
2022-08-30T20:50:50.404Z,40.21
2022-08-30T20:53:16.978Z,40.58
2022-08-30T20:55:45.785Z,40.58
2022-08-30T20:58:12.951Z,40.39
2022-08-30T21:00:40.171Z,40.63
2022-08-30T21:03:26.391Z,40.49
2022-08-30T21:05:55.246Z,40.36
2022-08-30T21:08:21.906Z,40.53
2022-08-30T21:10:48.558Z,40.10
2022-08-30T21:13:15.210Z,40.49
2022-08-30T21:15:45.854Z,40.19
2022-08-30T21:18:13.703Z,40.20
2022-08-30T21:20:40.458Z,40.26
2022-08-30T21:23:07.081Z,40.36
2022-08-30T21:25:34.211Z,40.07
2022-08-30T21:28:00.960Z,39.83
2022-08-30T21:30:27.598Z,40.09
2022-08-30T21:32:55.112Z,40.26
2022-08-30T21:35:45.514Z,39.99
2022-08-30T21:38:12.079Z,40.00
2022-08-30T21:40:38.748Z,40.28
2022-08-30T21:43:07.534Z,40.07
2022-08-30T21:45:41.455Z,40.27
2022-08-30T21:48:08.937Z,40.09
2022-08-30T21:50:38.141Z,40.29
2022-08-30T21:53:05.986Z,40.33
2022-08-30T21:55:32.928Z,40.04
2022-08-30T21:57:59.577Z,40.00
2022-08-30T22:00:26.371Z,40.50
2022-08-30T22:02:53.345Z,40.22
2022-08-30T22:05:20.088Z,40.06
2022-08-30T22:07:46.663Z,40.03
2022-08-30T22:10:13.311Z,39.91
2022-08-30T22:12:39.870Z,40.02
2022-08-30T22:15:09.302Z,40.30
2022-08-30T22:17:35.887Z,40.07
2022-08-30T22:20:03.659Z,40.02
2022-08-30T22:22:30.271Z,40.10
2022-08-30T22:24:56.854Z,39.88
2022-08-30T22:27:23.454Z,40.28
2022-08-30T22:29:50.007Z,40.35
2022-08-30T22:32:16.631Z,40.19
2022-08-30T22:34:45.772Z,39.87
2022-08-30T22:37:12.331Z,39.89
2022-08-30T22:39:38.948Z,40.27
2022-08-30T22:42:05.812Z,40.25
2022-08-30T22:44:32.424Z,40.20
2022-08-30T22:47:00.665Z,39.77
2022-08-30T22:49:27.590Z,40.00
2022-08-30T22:51:54.183Z,40.23
2022-08-30T22:54:20.771Z,39.87
2022-08-30T22:56:47.341Z,40.09
2022-08-30T22:59:15.023Z,40.27
2022-08-30T23:01:43.359Z,40.17
2022-08-30T23:04:11.347Z,39.87
2022-08-30T23:06:37.947Z,40.25
2022-08-30T23:09:06.198Z,40.22
2022-08-30T23:11:33.705Z,40.06
2022-08-30T23:14:01.144Z,40.31
2022-08-30T23:16:27.834Z,40.31
2022-08-30T23:18:54.503Z,40.26
2022-08-30T23:21:23.744Z,40.19
2022-08-30T23:24:10.299Z,39.83
2022-08-30T23:26:55.944Z,39.93
2022-08-30T23:29:41.684Z,40.06
2022-08-30T23:32:26.886Z,40.15
2022-08-30T23:35:11.923Z,39.92
2022-08-30T23:37:56.964Z,40.13
2022-08-30T23:40:42.606Z,40.00
2022-08-30T23:43:28.810Z,40.35
2022-08-30T23:46:18.788Z,40.10
2022-08-30T23:49:08.331Z,39.91
2022-08-30T23:51:55.234Z,40.11
2022-08-30T23:54:40.293Z,40.20
2022-08-30T23:57:25.415Z,40.06
